sensor_id;sensor_type;location;lat;lon;timestamp;pressure;altitude;pressure_sealevel;temperature;humidity
20987;BME280;10652;50.306;8.570;2024-03-17T00:00:26;98733.81;;;5.68;77.28
20987;BME280;10652;50.306;8.570;2024-03-17T00:04:27;98729.66;;;5.56;78.16
20987;BME280;10652;50.306;8.570;2024-03-17T00:08:28;98732.34;;;5.50;78.75
20987;BME280;10652;50.306;8.570;2024-03-17T00:12:29;98731.59;;;5.42;79.10
20987;BME280;10652;50.306;8.570;2024-03-17T00:16:30;98731.66;;;5.39;80.17
20987;BME280;10652;50.306;8.570;2024-03-17T00:20:31;98725.59;;;5.37;80.05
20987;BME280;10652;50.306;8.570;2024-03-17T00:24:35;98720.66;;;5.19;79.77
20987;BME280;10652;50.306;8.570;2024-03-17T00:28:36;98727.00;;;5.02;81.58
20987;BME280;10652;50.306;8.570;2024-03-17T00:32:38;98723.59;;;4.97;82.77
20987;BME280;10652;50.306;8.570;2024-03-17T00:36:39;98724.50;;;4.95;82.39
20987;BME280;10652;50.306;8.570;2024-03-17T00:40:40;98721.16;;;4.85;81.48
20987;BME280;10652;50.306;8.570;2024-03-17T00:44:43;98708.63;;;4.49;81.48
20987;BME280;10652;50.306;8.570;2024-03-17T00:48:49;98701.78;;;4.40;83.79
20987;BME280;10652;50.306;8.570;2024-03-17T00:52:50;98697.41;;;4.42;83.40
20987;BME280;10652;50.306;8.570;2024-03-17T00:56:51;98698.50;;;4.26;82.27
20987;BME280;10652;50.306;8.570;2024-03-17T01:00:52;98690.94;;;4.02;83.12
20987;BME280;10652;50.306;8.570;2024-03-17T01:04:53;98698.00;;;3.86;83.81
20987;BME280;10652;50.306;8.570;2024-03-17T01:08:54;98692.84;;;3.85;84.61
20987;BME280;10652;50.306;8.570;2024-03-17T01:12:56;98680.69;;;3.85;84.98
20987;BME280;10652;50.306;8.570;2024-03-17T01:16:58;98673.00;;;3.76;85.17
20987;BME280;10652;50.306;8.570;2024-03-17T01:20:59;98673.91;;;3.70;85.11
20987;BME280;10652;50.306;8.570;2024-03-17T01:25:00;98673.31;;;3.44;84.71
20987;BME280;10652;50.306;8.570;2024-03-17T01:29:01;98660.44;;;3.29;85.45
20987;BME280;10652;50.306;8.570;2024-03-17T01:33:03;98654.38;;;3.30;87.39
20987;BME280;10652;50.306;8.570;2024-03-17T01:37:06;98649.09;;;3.39;87.36
20987;BME280;10652;50.306;8.570;2024-03-17T01:41:07;98647.44;;;3.27;85.97
20987;BME280;10652;50.306;8.570;2024-03-17T01:45:31;98644.94;;;3.21;87.21
20987;BME280;10652;50.306;8.570;2024-03-17T01:49:32;98644.09;;;3.16;86.74
20987;BME280;10652;50.306;8.570;2024-03-17T01:53:34;98635.56;;;3.02;86.34
20987;BME280;10652;50.306;8.570;2024-03-17T01:57:36;98632.13;;;2.97;87.05
20987;BME280;10652;50.306;8.570;2024-03-17T02:01:37;98627.81;;;2.99;87.44
20987;BME280;10652;50.306;8.570;2024-03-17T02:05:39;98626.94;;;2.96;87.16
20987;BME280;10652;50.306;8.570;2024-03-17T02:09:41;98625.28;;;2.90;86.65
20987;BME280;10652;50.306;8.570;2024-03-17T02:13:43;98632.34;;;2.64;86.37
20987;BME280;10652;50.306;8.570;2024-03-17T02:17:44;98629.84;;;2.52;87.56
20987;BME280;10652;50.306;8.570;2024-03-17T02:21:45;98636.00;;;2.35;88.23
20987;BME280;10652;50.306;8.570;2024-03-17T02:25:46;98630.75;;;2.44;89.78
20987;BME280;10652;50.306;8.570;2024-03-17T02:29:48;98624.63;;;2.58;89.61
20987;BME280;10652;50.306;8.570;2024-03-17T02:33:50;98625.50;;;2.57;88.51
20987;BME280;10652;50.306;8.570;2024-03-17T02:37:51;98622.91;;;2.52;88.50
20987;BME280;10652;50.306;8.570;2024-03-17T02:41:52;98620.34;;;2.47;88.92
20987;BME280;10652;50.306;8.570;2024-03-17T02:45:53;98616.91;;;2.42;88.33
20987;BME280;10652;50.306;8.570;2024-03-17T02:49:54;98611.84;;;2.18;87.00
20987;BME280;10652;50.306;8.570;2024-03-17T02:53:55;98624.03;;;2.04;87.92
20987;BME280;10652;50.306;8.570;2024-03-17T02:57:56;98613.75;;;1.86;88.04
20987;BME280;10652;50.306;8.570;2024-03-17T03:01:59;98616.31;;;1.78;89.46
20987;BME280;10652;50.306;8.570;2024-03-17T03:06:00;98613.72;;;1.84;90.75
20987;BME280;10652;50.306;8.570;2024-03-17T03:10:12;98606.84;;;1.79;90.71
20987;BME280;10652;50.306;8.570;2024-03-17T03:14:13;98612.03;;;1.73;91.15
20987;BME280;10652;50.306;8.570;2024-03-17T03:18:15;98617.22;;;1.70;91.67
20987;BME280;10652;50.306;8.570;2024-03-17T03:22:16;98617.22;;;1.76;92.47
20987;BME280;10652;50.306;8.570;2024-03-17T03:26:17;98622.38;;;1.79;92.11
20987;BME280;10652;50.306;8.570;2024-03-17T03:30:18;98624.97;;;1.76;91.48
20987;BME280;10652;50.306;8.570;2024-03-17T03:34:22;98623.28;;;1.67;92.14
20987;BME280;10652;50.306;8.570;2024-03-17T03:38:25;98625.00;;;1.64;92.40
20987;BME280;10652;50.306;8.570;2024-03-17T03:42:26;98620.69;;;1.72;93.19
20987;BME280;10652;50.306;8.570;2024-03-17T03:46:28;98621.53;;;1.74;92.75
20987;BME280;10652;50.306;8.570;2024-03-17T03:50:30;98620.69;;;1.72;92.22
20987;BME280;10652;50.306;8.570;2024-03-17T03:54:33;98629.34;;;1.58;92.61
20987;BME280;10652;50.306;8.570;2024-03-17T03:58:35;98628.47;;;1.67;92.99
20987;BME280;10652;50.306;8.570;2024-03-17T04:02:36;98634.47;;;1.74;92.64
20987;BME280;10652;50.306;8.570;2024-03-17T04:06:37;98632.75;;;1.74;91.89
20987;BME280;10652;50.306;8.570;2024-03-17T04:10:38;98634.50;;;1.68;91.42
20987;BME280;10652;50.306;8.570;2024-03-17T04:14:39;98633.63;;;1.64;91.29
20987;BME280;10652;50.306;8.570;2024-03-17T04:18:41;98637.97;;;1.56;91.50
20987;BME280;10652;50.306;8.570;2024-03-17T04:22:42;98639.72;;;1.52;91.79
20987;BME280;10652;50.306;8.570;2024-03-17T04:26:44;98643.16;;;1.36;91.65
20987;BME280;10652;50.306;8.570;2024-03-17T04:30:45;98636.28;;;1.28;92.80
20987;BME280;10652;50.306;8.570;2024-03-17T04:34:50;98637.16;;;1.34;93.53
20987;BME280;10652;50.306;8.570;2024-03-17T04:38:51;98636.25;;;1.43;93.51
20987;BME280;10652;50.306;8.570;2024-03-17T04:42:52;98628.50;;;1.32;92.91
20987;BME280;10652;50.306;8.570;2024-03-17T04:46:54;98635.41;;;1.39;94.08
20987;BME280;10652;50.306;8.570;2024-03-17T04:50:55;98638.00;;;1.33;92.88
20987;BME280;10652;50.306;8.570;2024-03-17T04:54:56;98642.34;;;1.31;92.32
20987;BME280;10652;50.306;8.570;2024-03-17T04:58:57;98639.75;;;1.31;92.06
20987;BME280;10652;50.306;8.570;2024-03-17T05:02:58;98635.41;;;1.38;92.67
20987;BME280;10652;50.306;8.570;2024-03-17T05:06:59;98638.84;;;1.46;92.86
20987;BME280;10652;50.306;8.570;2024-03-17T05:11:02;98629.34;;;1.58;92.72
20987;BME280;10652;50.306;8.570;2024-03-17T05:15:07;98638.78;;;1.73;92.04
20987;BME280;10652;50.306;8.570;2024-03-17T05:19:08;98631.00;;;1.82;92.31
20987;BME280;10652;50.306;8.570;2024-03-17T05:23:10;98639.63;;;1.95;91.70
20987;BME280;10652;50.306;8.570;2024-03-17T05:27:11;98640.41;;;2.04;91.61
20987;BME280;10652;50.306;8.570;2024-03-17T05:31:12;98632.63;;;2.12;90.48
20987;BME280;10652;50.306;8.570;2024-03-17T05:35:16;98633.59;;;1.90;88.81
20987;BME280;10652;50.306;8.570;2024-03-17T05:39:17;98621.53;;;1.80;89.93
20987;BME280;10652;50.306;8.570;2024-03-17T05:43:18;98628.47;;;1.72;90.06
20987;BME280;10652;50.306;8.570;2024-03-17T05:47:20;98633.59;;;1.73;91.00
20987;BME280;10652;50.306;8.570;2024-03-17T05:51:21;98632.75;;;1.80;91.13
20987;BME280;10652;50.306;8.570;2024-03-17T05:55:22;98633.59;;;1.84;90.27
20987;BME280;10652;50.306;8.570;2024-03-17T05:59:23;98626.66;;;1.92;91.42
20987;BME280;10652;50.306;8.570;2024-03-17T06:03:24;98625.84;;;1.81;90.87
20987;BME280;10652;50.306;8.570;2024-03-17T06:07:25;98628.41;;;1.78;92.02
20987;BME280;10652;50.306;8.570;2024-03-17T06:11:26;98631.81;;;1.98;92.94
20987;BME280;10652;50.306;8.570;2024-03-17T06:15:28;98622.19;;;2.23;93.55
20987;BME280;10652;50.306;8.570;2024-03-17T06:19:30;98617.75;;;2.54;93.72
20987;BME280;10652;50.306;8.570;2024-03-17T06:23:32;98620.16;;;2.81;93.30
20987;BME280;10652;50.306;8.570;2024-03-17T06:27:33;98618.22;;;3.06;92.31
20987;BME280;10652;50.306;8.570;2024-03-17T06:31:35;98614.56;;;3.29;91.25
20987;BME280;10652;50.306;8.570;2024-03-17T06:35:37;98622.19;;;3.46;89.91
20987;BME280;10652;50.306;8.570;2024-03-17T06:39:38;98611.72;;;3.55;88.60
20987;BME280;10652;50.306;8.570;2024-03-17T06:43:40;98615.13;;;3.59;87.70
20987;BME280;10652;50.306;8.570;2024-03-17T06:47:44;98610.78;;;3.62;87.20
20987;BME280;10652;50.306;8.570;2024-03-17T06:51:45;98613.38;;;3.62;86.82
20987;BME280;10652;50.306;8.570;2024-03-17T06:55:56;98606.41;;;3.67;87.30
20987;BME280;10652;50.306;8.570;2024-03-17T06:59:57;98608.09;;;3.71;87.16
20987;BME280;10652;50.306;8.570;2024-03-17T07:03:58;98598.41;;;3.84;87.37
20987;BME280;10652;50.306;8.570;2024-03-17T07:08:00;98598.28;;;3.99;87.12
20987;BME280;10652;50.306;8.570;2024-03-17T07:12:01;98598.88;;;4.19;86.90
20987;BME280;10652;50.306;8.570;2024-03-17T07:16:04;98600.38;;;4.37;85.81
20987;BME280;10652;50.306;8.570;2024-03-17T07:20:08;98596.63;;;4.56;84.75
20987;BME280;10652;50.306;8.570;2024-03-17T07:24:13;98596.38;;;4.75;83.65
20987;BME280;10652;50.306;8.570;2024-03-17T07:28:14;98605.69;;;4.89;81.53
20987;BME280;10652;50.306;8.570;2024-03-17T07:32:16;98599.34;;;5.05;79.97
20987;BME280;10652;50.306;8.570;2024-03-17T07:36:17;98594.72;;;5.23;78.70
20987;BME280;10652;50.306;8.570;2024-03-17T07:40:18;98590.13;;;5.37;76.86
20987;BME280;10652;50.306;8.570;2024-03-17T07:44:19;98592.47;;;5.52;75.69
20987;BME280;10652;50.306;8.570;2024-03-17T07:48:20;98590.47;;;5.68;73.92
20987;BME280;10652;50.306;8.570;2024-03-17T07:52:24;98594.47;;;5.84;72.52
20987;BME280;10652;50.306;8.570;2024-03-17T07:56:25;98595.03;;;5.99;70.92
20987;BME280;10652;50.306;8.570;2024-03-17T08:00:26;98586.91;;;6.15;69.91
20987;BME280;10652;50.306;8.570;2024-03-17T08:04:27;98587.47;;;6.29;67.61
20987;BME280;10652;50.306;8.570;2024-03-17T08:08:29;98576.88;;;6.38;65.27
20987;BME280;10652;50.306;8.570;2024-03-17T08:12:30;98580.91;;;6.53;65.25
20987;BME280;10652;50.306;8.570;2024-03-17T08:16:31;98582.41;;;6.63;63.48
20987;BME280;10652;50.306;8.570;2024-03-17T08:20:36;98581.25;;;6.74;62.70
20987;BME280;10652;50.306;8.570;2024-03-17T08:24:37;98588.00;;;6.84;60.54
20987;BME280;10652;50.306;8.570;2024-03-17T08:28:38;98583.41;;;6.94;59.72
20987;BME280;10652;50.306;8.570;2024-03-17T08:32:40;98588.41;;;7.03;59.50
20987;BME280;10652;50.306;8.570;2024-03-17T08:36:41;98581.09;;;7.17;58.70
20987;BME280;10652;50.306;8.570;2024-03-17T08:40:42;98583.50;;;7.26;58.13
20987;BME280;10652;50.306;8.570;2024-03-17T08:44:46;98583.19;;;7.37;57.87
20987;BME280;10652;50.306;8.570;2024-03-17T08:48:47;98576.75;;;7.50;57.79
20987;BME280;10652;50.306;8.570;2024-03-17T08:52:49;98582.41;;;7.67;57.83
20987;BME280;10652;50.306;8.570;2024-03-17T08:56:51;98579.94;;;7.94;57.25
20987;BME280;10652;50.306;8.570;2024-03-17T09:00:53;98572.97;;;8.25;56.88
20987;BME280;10652;50.306;8.570;2024-03-17T09:04:54;98574.66;;;8.55;55.20
20987;BME280;10652;50.306;8.570;2024-03-17T09:08:55;98577.94;;;8.90;55.83
20987;BME280;10652;50.306;8.570;2024-03-17T09:12:56;98582.31;;;9.42;62.85
20987;BME280;10652;50.306;8.570;2024-03-17T09:16:57;98592.50;;;10.02;60.66
20987;BME280;10652;50.306;8.570;2024-03-17T09:21:00;98582.69;;;10.30;55.46
20987;BME280;10652;50.306;8.570;2024-03-17T09:25:05;98580.75;;;10.12;53.07
20987;BME280;10652;50.306;8.570;2024-03-17T09:29:15;98583.91;;;9.97;51.99
20987;BME280;10652;50.306;8.570;2024-03-17T09:33:16;98582.31;;;9.93;52.00
20987;BME280;10652;50.306;8.570;2024-03-17T09:37:17;98573.59;;;9.92;51.96
20987;BME280;10652;50.306;8.570;2024-03-17T09:41:21;98564.69;;;9.96;51.89
20987;BME280;10652;50.306;8.570;2024-03-17T09:45:30;98562.03;;;9.98;52.01
20987;BME280;10652;50.306;8.570;2024-03-17T09:49:34;98574.81;;;10.07;52.01
20987;BME280;10652;50.306;8.570;2024-03-17T09:53:35;98571.03;;;10.14;52.44
20987;BME280;10652;50.306;8.570;2024-03-17T09:57:37;98558.03;;;10.34;52.20
20987;BME280;10652;50.306;8.570;2024-03-17T10:01:38;98550.56;;;10.45;51.64
20987;BME280;10652;50.306;8.570;2024-03-17T10:05:39;98550.34;;;10.52;51.93
20987;BME280;10652;50.306;8.570;2024-03-17T10:09:41;98548.03;;;10.66;51.74
20987;BME280;10652;50.306;8.570;2024-03-17T10:13:47;98554.06;;;10.68;51.58
20987;BME280;10652;50.306;8.570;2024-03-17T10:17:59;98549.75;;;10.67;51.74
20987;BME280;10652;50.306;8.570;2024-03-17T10:22:00;98548.22;;;10.61;51.55
20987;BME280;10652;50.306;8.570;2024-03-17T10:26:02;98542.97;;;10.61;52.03
20987;BME280;10652;50.306;8.570;2024-03-17T10:30:03;98541.06;;;10.65;52.50
20987;BME280;10652;50.306;8.570;2024-03-17T10:34:14;98538.31;;;10.68;52.26
20987;BME280;10652;50.306;8.570;2024-03-17T10:38:16;98538.94;;;10.74;51.95
20987;BME280;10652;50.306;8.570;2024-03-17T10:42:24;98549.03;;;10.85;52.39
20987;BME280;10652;50.306;8.570;2024-03-17T10:46:27;98553.56;;;11.03;52.50
20987;BME280;10652;50.306;8.570;2024-03-17T10:50:30;98544.13;;;11.19;51.93
20987;BME280;10652;50.306;8.570;2024-03-17T10:54:32;98535.72;;;11.31;51.70
20987;BME280;10652;50.306;8.570;2024-03-17T10:58:38;98528.97;;;11.46;51.75
20987;BME280;10652;50.306;8.570;2024-03-17T11:02:49;98537.06;;;11.62;51.10
20987;BME280;10652;50.306;8.570;2024-03-17T11:06:51;98525.13;;;11.73;51.14
20987;BME280;10652;50.306;8.570;2024-03-17T11:10:53;98520.56;;;11.97;51.35
20987;BME280;10652;50.306;8.570;2024-03-17T11:19:20;98531.66;;;12.43;50.74
20987;BME280;10652;50.306;8.570;2024-03-17T11:23:29;98539.34;;;12.66;50.07
20987;BME280;10652;50.306;8.570;2024-03-17T11:27:40;98520.91;;;12.83;49.28
20987;BME280;10652;50.306;8.570;2024-03-17T11:31:45;98525.72;;;12.75;48.87
20987;BME280;10652;50.306;8.570;2024-03-17T11:35:47;98517.09;;;12.72;49.20
20987;BME280;10652;50.306;8.570;2024-03-17T11:39:50;98513.44;;;12.74;49.44
20987;BME280;10652;50.306;8.570;2024-03-17T11:48:21;98522.75;;;12.81;49.41
20987;BME280;10652;50.306;8.570;2024-03-17T11:52:22;98512.56;;;12.92;49.06
20987;BME280;10652;50.306;8.570;2024-03-17T11:56:24;98525.09;;;12.87;48.63
20987;BME280;10652;50.306;8.570;2024-03-17T12:00:27;98520.84;;;12.85;48.95
20987;BME280;10652;50.306;8.570;2024-03-17T12:04:28;98517.19;;;12.87;49.13
20987;BME280;10652;50.306;8.570;2024-03-17T12:08:29;98518.47;;;12.97;49.37
20987;BME280;10652;50.306;8.570;2024-03-17T12:12:31;98511.72;;;13.09;49.18
20987;BME280;10652;50.306;8.570;2024-03-17T12:16:35;98502.66;;;13.32;49.03
20987;BME280;10652;50.306;8.570;2024-03-17T12:20:37;98494.88;;;13.46;48.51
20987;BME280;10652;50.306;8.570;2024-03-17T12:24:39;98506.25;;;13.31;47.89
20987;BME280;10652;50.306;8.570;2024-03-17T12:28:40;98506.38;;;13.10;48.62
20987;BME280;10652;50.306;8.570;2024-03-17T12:32:41;98493.88;;;13.14;48.47
20987;BME280;10652;50.306;8.570;2024-03-17T12:36:43;98498.84;;;13.20;48.79
20987;BME280;10652;50.306;8.570;2024-03-17T12:40:44;98487.53;;;13.35;48.56
20987;BME280;10652;50.306;8.570;2024-03-17T12:48:58;98475.97;;;13.55;47.76
20987;BME280;10652;50.306;8.570;2024-03-17T12:52:59;98478.28;;;13.61;48.16
20987;BME280;10652;50.306;8.570;2024-03-17T12:57:07;98472.66;;;13.67;48.08
20987;BME280;10652;50.306;8.570;2024-03-17T13:01:28;98468.72;;;13.58;47.96
20987;BME280;10652;50.306;8.570;2024-03-17T13:05:30;98464.47;;;13.56;47.76
20987;BME280;10652;50.306;8.570;2024-03-17T13:09:32;98462.28;;;13.64;47.73
20987;BME280;10652;50.306;8.570;2024-03-17T13:13:33;98454.78;;;13.72;47.97
20987;BME280;10652;50.306;8.570;2024-03-17T13:17:34;98445.53;;;13.81;47.85
20987;BME280;10652;50.306;8.570;2024-03-17T13:21:36;98428.09;;;13.94;47.94
20987;BME280;10652;50.306;8.570;2024-03-17T13:25:37;98424.38;;;13.98;48.39
20987;BME280;10652;50.306;8.570;2024-03-17T13:29:38;98413.63;;;14.17;47.58
20987;BME280;10652;50.306;8.570;2024-03-17T13:33:39;98409.00;;;14.05;46.99
20987;BME280;10652;50.306;8.570;2024-03-17T13:37:40;98402.19;;;14.00;47.52
20987;BME280;10652;50.306;8.570;2024-03-17T13:41:42;98403.56;;;14.08;47.29
20987;BME280;10652;50.306;8.570;2024-03-17T13:45:43;98397.84;;;13.99;47.27
20987;BME280;10652;50.306;8.570;2024-03-17T13:49:44;98386.19;;;13.88;47.78
20987;BME280;10652;50.306;8.570;2024-03-17T13:53:45;98388.88;;;13.86;47.65
20987;BME280;10652;50.306;8.570;2024-03-17T13:57:49;98385.31;;;13.87;47.50
20987;BME280;10652;50.306;8.570;2024-03-17T14:01:52;98378.59;;;13.97;47.83
20987;BME280;10652;50.306;8.570;2024-03-17T14:05:53;98374.25;;;13.96;47.66
20987;BME280;10652;50.306;8.570;2024-03-17T14:09:54;98371.16;;;13.73;47.63
20987;BME280;10652;50.306;8.570;2024-03-17T14:13:55;98373.34;;;13.49;47.94
20987;BME280;10652;50.306;8.570;2024-03-17T14:17:56;98371.66;;;13.31;48.10
20987;BME280;10652;50.306;8.570;2024-03-17T14:21:57;98376.34;;;13.26;49.09
20987;BME280;10652;50.306;8.570;2024-03-17T14:25:58;98366.41;;;13.13;49.08
20987;BME280;10652;50.306;8.570;2024-03-17T14:30:00;98368.91;;;12.99;49.60
20987;BME280;10652;50.306;8.570;2024-03-17T14:34:01;98369.38;;;12.90;49.84
20987;BME280;10652;50.306;8.570;2024-03-17T14:38:02;98358.00;;;12.90;51.27
20987;BME280;10652;50.306;8.570;2024-03-17T14:42:03;98355.81;;;12.98;50.54
20987;BME280;10652;50.306;8.570;2024-03-17T14:46:05;98356.28;;;12.89;50.52
20987;BME280;10652;50.306;8.570;2024-03-17T14:50:09;98345.97;;;12.84;50.53
20987;BME280;10652;50.306;8.570;2024-03-17T14:54:12;98345.97;;;12.84;50.63
20987;BME280;10652;50.306;8.570;2024-03-17T14:58:14;98341.78;;;12.80;50.83
20987;BME280;10652;50.306;8.570;2024-03-17T15:02:16;98345.28;;;12.81;51.18
20987;BME280;10652;50.306;8.570;2024-03-17T15:06:17;98340.06;;;12.79;51.19
20987;BME280;10652;50.306;8.570;2024-03-17T15:10:19;98342.25;;;12.71;51.63
20987;BME280;10652;50.306;8.570;2024-03-17T15:14:21;98340.56;;;12.70;51.92
20987;BME280;10652;50.306;8.570;2024-03-17T15:18:23;98325.03;;;12.64;51.89
20987;BME280;10652;50.306;8.570;2024-03-17T15:22:24;98322.97;;;12.53;51.83
20987;BME280;10652;50.306;8.570;2024-03-17T15:26:25;98328.13;;;12.38;52.37
20987;BME280;10652;50.306;8.570;2024-03-17T15:30:26;98319.56;;;12.33;52.89
20987;BME280;10652;50.306;8.570;2024-03-17T15:34:30;98319.72;;;12.30;53.11
20987;BME280;10652;50.306;8.570;2024-03-17T15:38:35;98316.19;;;12.31;53.21
20987;BME280;10652;50.306;8.570;2024-03-17T15:42:37;98328.56;;;12.29;53.47
20987;BME280;10652;50.306;8.570;2024-03-17T15:46:38;98323.09;;;12.14;53.64
20987;BME280;10652;50.306;8.570;2024-03-17T15:50:42;98318.94;;;12.10;53.77
20987;BME280;10652;50.306;8.570;2024-03-17T15:54:45;98323.50;;;12.07;53.99
20987;BME280;10652;50.306;8.570;2024-03-17T15:58:46;98319.38;;;12.01;54.41
20987;BME280;10652;50.306;8.570;2024-03-17T16:02:48;98324.47;;;12.04;53.88
20987;BME280;10652;50.306;8.570;2024-03-17T16:06:49;98318.28;;;12.05;53.85
20987;BME280;10652;50.306;8.570;2024-03-17T16:10:52;98311.41;;;12.03;53.70
20987;BME280;10652;50.306;8.570;2024-03-17T16:14:54;98317.38;;;12.06;54.07
20987;BME280;10652;50.306;8.570;2024-03-17T16:19:01;98309.41;;;12.08;53.98
20987;BME280;10652;50.306;8.570;2024-03-17T16:23:02;98314.75;;;12.06;54.08
20987;BME280;10652;50.306;8.570;2024-03-17T16:27:04;98302.03;;;12.14;54.39
20987;BME280;10652;50.306;8.570;2024-03-17T16:31:06;98298.88;;;12.25;54.04
20987;BME280;10652;50.306;8.570;2024-03-17T16:35:07;98302.16;;;12.30;53.75
20987;BME280;10652;50.306;8.570;2024-03-17T16:39:09;98289.84;;;12.31;53.35
20987;BME280;10652;50.306;8.570;2024-03-17T16:43:16;98288.03;;;12.31;53.53
20987;BME280;10652;50.306;8.570;2024-03-17T16:47:27;98284.06;;;12.22;53.43
20987;BME280;10652;50.306;8.570;2024-03-17T16:51:29;98297.69;;;12.13;53.80
20987;BME280;10652;50.306;8.570;2024-03-17T16:55:30;98300.94;;;12.01;53.89
20987;BME280;10652;50.306;8.570;2024-03-17T16:59:32;98293.78;;;11.86;54.44
20987;BME280;10652;50.306;8.570;2024-03-17T17:03:34;98296.59;;;11.64;54.61
20987;BME280;10652;50.306;8.570;2024-03-17T17:07:35;98299.59;;;11.38;55.25
20987;BME280;10652;50.306;8.570;2024-03-17T17:11:37;98284.72;;;11.18;55.92
20987;BME280;10652;50.306;8.570;2024-03-17T17:15:38;98281.06;;;11.02;56.26
20987;BME280;10652;50.306;8.570;2024-03-17T17:19:39;98291.31;;;10.88;57.02
20987;BME280;10652;50.306;8.570;2024-03-17T17:23:41;98289.44;;;10.71;57.36
20987;BME280;10652;50.306;8.570;2024-03-17T17:27:42;98283.84;;;10.59;57.77
20987;BME280;10652;50.306;8.570;2024-03-17T17:31:43;98277.34;;;10.47;58.44
20987;BME280;10652;50.306;8.570;2024-03-17T17:35:45;98271.66;;;10.37;58.87
20987;BME280;10652;50.306;8.570;2024-03-17T17:39:46;98278.09;;;10.30;59.07
20987;BME280;10652;50.306;8.570;2024-03-17T17:43:49;98266.13;;;10.23;59.60
20987;BME280;10652;50.306;8.570;2024-03-17T17:47:50;98270.84;;;10.15;59.85
20987;BME280;10652;50.306;8.570;2024-03-17T17:51:52;98279.09;;;10.06;60.26
20987;BME280;10652;50.306;8.570;2024-03-17T17:55:53;98268.13;;;9.96;60.81
20987;BME280;10652;50.306;8.570;2024-03-17T17:59:54;98263.31;;;9.86;61.30
20987;BME280;10652;50.306;8.570;2024-03-17T18:03:56;98271.44;;;9.80;61.88
20987;BME280;10652;50.306;8.570;2024-03-17T18:07:59;98271.34;;;9.81;62.59
20987;BME280;10652;50.306;8.570;2024-03-17T18:12:00;98280.03;;;9.83;63.10
20987;BME280;10652;50.306;8.570;2024-03-17T18:16:03;98287.06;;;9.83;63.35
20987;BME280;10652;50.306;8.570;2024-03-17T18:20:05;98291.34;;;9.85;64.70
20987;BME280;10652;50.306;8.570;2024-03-17T18:24:06;98291.44;;;9.82;64.79
20987;BME280;10652;50.306;8.570;2024-03-17T18:28:08;98292.44;;;9.80;64.53
20987;BME280;10652;50.306;8.570;2024-03-17T18:32:09;98296.94;;;9.76;64.38
20987;BME280;10652;50.306;8.570;2024-03-17T18:36:10;98304.81;;;9.76;65.01
20987;BME280;10652;50.306;8.570;2024-03-17T18:40:14;98307.00;;;9.64;64.73
20987;BME280;10652;50.306;8.570;2024-03-17T18:44:19;98301.63;;;9.45;65.27
20987;BME280;10652;50.306;8.570;2024-03-17T18:48:20;98297.16;;;9.25;65.93
20987;BME280;10652;50.306;8.570;2024-03-17T18:52:21;98296.69;;;9.14;67.07
20987;BME280;10652;50.306;8.570;2024-03-17T18:56:23;98303.94;;;9.07;67.61
20987;BME280;10652;50.306;8.570;2024-03-17T19:00:25;98299.44;;;9.11;68.76
20987;BME280;10652;50.306;8.570;2024-03-17T19:04:29;98303.09;;;9.07;68.67
20987;BME280;10652;50.306;8.570;2024-03-17T19:08:31;98305.75;;;9.05;69.28
20987;BME280;10652;50.306;8.570;2024-03-17T19:12:32;98294.72;;;8.97;69.13
20987;BME280;10652;50.306;8.570;2024-03-17T19:16:34;98290.53;;;8.92;70.06
20987;BME280;10652;50.306;8.570;2024-03-17T19:20:35;98285.25;;;8.93;70.54
20987;BME280;10652;50.306;8.570;2024-03-17T19:24:36;98273.09;;;8.91;69.73
20987;BME280;10652;50.306;8.570;2024-03-17T19:28:38;98269.44;;;8.95;70.24
20987;BME280;10652;50.306;8.570;2024-03-17T19:32:43;98271.06;;;8.99;69.76
20987;BME280;10652;50.306;8.570;2024-03-17T19:36:44;98277.16;;;8.99;69.88
20987;BME280;10652;50.306;8.570;2024-03-17T19:41:00;98274.69;;;8.95;70.13
20987;BME280;10652;50.306;8.570;2024-03-17T19:45:02;98271.59;;;8.85;71.20
20987;BME280;10652;50.306;8.570;2024-03-17T19:49:05;98275.84;;;8.88;71.22
20987;BME280;10652;50.306;8.570;2024-03-17T19:53:07;98260.59;;;8.76;70.98
20987;BME280;10652;50.306;8.570;2024-03-17T19:57:08;98269.50;;;8.70;72.43
20987;BME280;10652;50.306;8.570;2024-03-17T20:01:10;98266.31;;;8.62;72.03
20987;BME280;10652;50.306;8.570;2024-03-17T20:05:11;98264.28;;;8.45;72.08
20987;BME280;10652;50.306;8.570;2024-03-17T20:09:12;98257.19;;;8.24;72.72
20987;BME280;10652;50.306;8.570;2024-03-17T20:13:15;98258.13;;;7.95;73.26
20987;BME280;10652;50.306;8.570;2024-03-17T20:17:16;98257.19;;;7.71;75.58
20987;BME280;10652;50.306;8.570;2024-03-17T20:21:17;98252.84;;;7.70;76.43
20987;BME280;10652;50.306;8.570;2024-03-17T20:25:19;98245.13;;;7.67;76.73
20987;BME280;10652;50.306;8.570;2024-03-17T20:29:20;98237.25;;;7.67;76.67
20987;BME280;10652;50.306;8.570;2024-03-17T20:33:22;98239.91;;;7.66;76.44
20987;BME280;10652;50.306;8.570;2024-03-17T20:37:23;98242.41;;;7.69;76.82
20987;BME280;10652;50.306;8.570;2024-03-17T20:41:25;98242.50;;;7.67;77.45
20987;BME280;10652;50.306;8.570;2024-03-17T20:45:27;98251.25;;;7.66;78.38
20987;BME280;10652;50.306;8.570;2024-03-17T20:49:28;98242.53;;;7.66;78.75
20987;BME280;10652;50.306;8.570;2024-03-17T20:53:30;98253.75;;;7.69;79.54
20987;BME280;10652;50.306;8.570;2024-03-17T20:57:32;98245.28;;;7.61;79.41
20987;BME280;10652;50.306;8.570;2024-03-17T21:01:33;98257.81;;;7.52;79.57
20987;BME280;10652;50.306;8.570;2024-03-17T21:05:34;98246.03;;;7.38;79.68
20987;BME280;10652;50.306;8.570;2024-03-17T21:09:37;98244.50;;;7.04;78.12
20987;BME280;10652;50.306;8.570;2024-03-17T21:13:38;98239.97;;;6.79;80.22
20987;BME280;10652;50.306;8.570;2024-03-17T21:17:40;98240.13;;;6.73;81.09
20987;BME280;10652;50.306;8.570;2024-03-17T21:21:41;98228.50;;;6.54;80.95
20987;BME280;10652;50.306;8.570;2024-03-17T21:25:42;98213.03;;;6.48;82.31
20987;BME280;10652;50.306;8.570;2024-03-17T21:29:46;98203.25;;;6.55;82.67
20987;BME280;10652;50.306;8.570;2024-03-17T21:33:48;98193.50;;;6.61;82.37
20987;BME280;10652;50.306;8.570;2024-03-17T21:37:49;98191.91;;;6.57;81.80
20987;BME280;10652;50.306;8.570;2024-03-17T21:41:50;98194.53;;;6.56;82.21
20987;BME280;10652;50.306;8.570;2024-03-17T21:45:58;98195.50;;;6.53;81.81